Capricornus Leader — 9V2816 — position and weather

sailwx.info

Track history (hours):
 
Tides and Currents Weather Stations Pressure Air Temp Water Temp Dewpoint Dewpoint Depression Visibility Wind Speed Wind Dir Waves Ship Positions

Capricornus Leader

Last reported at 2018-Jun-17 17:48 UTC. Time now 2018-Jun-18 11:14 UTC.
Position N 40°30' W 009°59'.

Length 199 m; draft 9.4 m.

Type: Cargo ship. MMSI: 564902000.

Date/timePositionNaut miles runAvg speedWind from/ knotsBaromVisibWave heightAir tempDewpointWater temp
2018-Jun-17 17:48N 40°30' W 009°59'514.5
2018-Jun-17 17:30N 40°25' W 010°02'714.8
2018-Jun-17 16:59N 40°19' W 010°05'714.6
2018-Jun-17 16:30N 40°12' W 010°09'1014.8
2018-Jun-17 15:50N 40°03' W 010°13'1214.9
2018-Jun-17 15:02N 39°51' W 010°19'114.5
2018-Jun-17 14:59N 39°51' W 010°19'2015.0
2018-Jun-17 13:37N 39°32' W 010°29'614.8
2018-Jun-17 13:13N 39°26' W 010°32'614.6
2018-Jun-17 12:51N 39°21' W 010°34'814.4
2018-Jun-17 12:16N 39°13' W 010°38'414.7
2018-Jun-17 12:00N 39°10' W 010°40'1114.6
2018-Jun-17 11:15N 38°60' W 010°45'414.4
2018-Jun-17 11:00N 38°56' W 010°47'714.7
2018-Jun-17 10:30N 38°49' W 010°50'814.3
2018-Jun-17 09:58N 38°42' W 010°54'714.5
2018-Jun-17 09:27N 38°35' W 010°57'714.8
2018-Jun-17 09:00N 38°29' W 011°00'714.9
2018-Jun-17 08:30N 38°22' W 011°04'714.5
2018-Jun-17 08:00N 38°15' W 011°07'714.4
2018-Jun-17 07:30N 38°09' W 011°10'4313.7
2018-Jun-17 04:24N 37°29' W 011°30'613.7
2018-Jun-17 03:58N 37°23' W 011°33'913.9
2018-Jun-17 03:19N 37°15' W 011°37'414.1
2018-Jun-17 03:01N 37°11' W 011°39'18014.1
2018-Jun-16 14:13N 34°24' W 012°59'314.2
2018-Jun-16 14:00N 34°21' W 013°01'814.1
2018-Jun-16 13:27N 34°13' W 013°04'614.0
2018-Jun-16 13:01N 34°08' W 013°07'714.1
2018-Jun-16 12:30N 34°01' W 013°10'6114.1
2018-Jun-16 08:13N 33°05' W 013°36'3514.5
2018-Jun-16 05:49N 32°32' W 013°52'414.6
2018-Jun-16 05:31N 32°28' W 013°54'2214.5
2018-Jun-16 03:57N 32°07' W 014°03'614.4
2018-Jun-16 03:30N 32°01' W 014°06'814.6
2018-Jun-16 02:59N 31°54' W 014°09'714.8
2018-Jun-16 02:30N 31°47' W 014°12'8714.8
2018-Jun-15 20:38N 30°26' W 014°49'214.7
2018-Jun-15 20:30N 30°24' W 014°50'714.7
2018-Jun-15 20:00N 30°17' W 014°53'1015.4
2018-Jun-15 19:20N 30°08' W 014°57'615.7
2018-Jun-15 18:57N 30°02' W 015°00'2015.6
2018-Jun-15 17:41N 29°44' W 015°08'315.3
2018-Jun-15 17:30N 29°41' W 015°09'815.1
2018-Jun-15 17:00N 29°34' W 015°13'715.1
2018-Jun-15 16:30N 29°27' W 015°16'1015.0
2018-Jun-15 15:52N 29°19' W 015°21'412.1
2018-Jun-15 15:31N 29°15' W 015°24'815.6
2018-Jun-15 15:00N 29°23' W 015°21'916.0
2018-Jun-15 14:28N 29°31' W 015°18'4 9.4
2018-Jun-15 14:00N 29°27' W 015°16'3015.0
2018-Jun-15 11:59N 28°58' W 015°29'815.1
2018-Jun-15 11:29N 28°51' W 015°32'714.9
2018-Jun-15 11:00N 28°44' W 015°35'714.7
2018-Jun-15 10:30N 28°38' W 015°38'714.4
2018-Jun-15 10:00N 28°31' W 015°42'714.3
2018-Jun-15 09:30N 28°25' W 015°47'714.3
2018-Jun-15 09:00N 28°22' W 015°53'714.3
2018-Jun-15 08:30N 28°16' W 015°59'714.3
2018-Jun-15 08:00N 28°11' W 016°04'714.4
2018-Jun-15 07:30N 28°05' W 016°09'1614.5
2018-Jun-15 06:23N 27°51' W 016°17'614.5
2018-Jun-15 05:58N 27°45' W 016°18'  
Track history (hours):
 
Tides and Currents Weather Stations Pressure Air Temp Water Temp Dewpoint Dewpoint Depression Visibility Wind Speed Wind Dir Waves Ship Positions

Capricornus Leader

Last reported at 2018-Jun-17 17:48 UTC. Time now 2018-Jun-18 11:14 UTC.
Position N 40°30' W 009°59'.

Length 199 m; draft 9.4 m.

Type: Cargo ship. MMSI: 564902000.

Date/timePositionNaut miles runAvg speedWind from/ knotsBaromVisibWave heightAir tempDewpointWater temp
2018-Jun-17 17:48N 40°30' W 009°59'514.5
2018-Jun-17 17:30N 40°25' W 010°02'714.8
2018-Jun-17 16:59N 40°19' W 010°05'714.6
2018-Jun-17 16:30N 40°12' W 010°09'1014.8
2018-Jun-17 15:50N 40°03' W 010°13'1214.9
2018-Jun-17 15:02N 39°51' W 010°19'114.5
2018-Jun-17 14:59N 39°51' W 010°19'2015.0
2018-Jun-17 13:37N 39°32' W 010°29'614.8
2018-Jun-17 13:13N 39°26' W 010°32'614.6
2018-Jun-17 12:51N 39°21' W 010°34'814.4
2018-Jun-17 12:16N 39°13' W 010°38'414.7
2018-Jun-17 12:00N 39°10' W 010°40'1114.6
2018-Jun-17 11:15N 38°60' W 010°45'414.4
2018-Jun-17 11:00N 38°56' W 010°47'714.7
2018-Jun-17 10:30N 38°49' W 010°50'814.3
2018-Jun-17 09:58N 38°42' W 010°54'714.5
2018-Jun-17 09:27N 38°35' W 010°57'714.8
2018-Jun-17 09:00N 38°29' W 011°00'714.9
2018-Jun-17 08:30N 38°22' W 011°04'714.5
2018-Jun-17 08:00N 38°15' W 011°07'714.4
2018-Jun-17 07:30N 38°09' W 011°10'4313.7
2018-Jun-17 04:24N 37°29' W 011°30'613.7
2018-Jun-17 03:58N 37°23' W 011°33'913.9
2018-Jun-17 03:19N 37°15' W 011°37'414.1
2018-Jun-17 03:01N 37°11' W 011°39'18014.1
2018-Jun-16 14:13N 34°24' W 012°59'314.2
2018-Jun-16 14:00N 34°21' W 013°01'814.1
2018-Jun-16 13:27N 34°13' W 013°04'614.0
2018-Jun-16 13:01N 34°08' W 013°07'714.1
2018-Jun-16 12:30N 34°01' W 013°10'6114.1
2018-Jun-16 08:13N 33°05' W 013°36'3514.5
2018-Jun-16 05:49N 32°32' W 013°52'414.6
2018-Jun-16 05:31N 32°28' W 013°54'2214.5
2018-Jun-16 03:57N 32°07' W 014°03'614.4
2018-Jun-16 03:30N 32°01' W 014°06'814.6
2018-Jun-16 02:59N 31°54' W 014°09'714.8
2018-Jun-16 02:30N 31°47' W 014°12'8714.8
2018-Jun-15 20:38N 30°26' W 014°49'214.7
2018-Jun-15 20:30N 30°24' W 014°50'714.7
2018-Jun-15 20:00N 30°17' W 014°53'1015.4
2018-Jun-15 19:20N 30°08' W 014°57'615.7
2018-Jun-15 18:57N 30°02' W 015°00'2015.6
2018-Jun-15 17:41N 29°44' W 015°08'315.3
2018-Jun-15 17:30N 29°41' W 015°09'815.1
2018-Jun-15 17:00N 29°34' W 015°13'715.1
2018-Jun-15 16:30N 29°27' W 015°16'1015.0
2018-Jun-15 15:52N 29°19' W 015°21'412.1
2018-Jun-15 15:31N 29°15' W 015°24'815.6
2018-Jun-15 15:00N 29°23' W 015°21'916.0
2018-Jun-15 14:28N 29°31' W 015°18'4 9.4
2018-Jun-15 14:00N 29°27' W 015°16'3015.0
2018-Jun-15 11:59N 28°58' W 015°29'815.1
2018-Jun-15 11:29N 28°51' W 015°32'714.9
2018-Jun-15 11:00N 28°44' W 015°35'714.7
2018-Jun-15 10:30N 28°38' W 015°38'714.4
2018-Jun-15 10:00N 28°31' W 015°42'714.3
2018-Jun-15 09:30N 28°25' W 015°47'714.3
2018-Jun-15 09:00N 28°22' W 015°53'714.3
2018-Jun-15 08:30N 28°16' W 015°59'714.3
2018-Jun-15 08:00N 28°11' W 016°04'714.4
2018-Jun-15 07:30N 28°05' W 016°09'1614.5
2018-Jun-15 06:23N 27°51' W 016°17'614.5
2018-Jun-15 05:58N 27°45' W 016°18'  

Dump ship's entire track history